Hlavní strana
METAR-TAF:

METAR-TAF

Letiště :

Mezinárodní letiště Soči

Soči, Rusko

zeměpisná šířka: 43-26N, zeměpisná délka: 039-54E, výška: 16 m

Aktuální stav počasí

Zpráva byla vytvořena před 22 minutami, v 00:30 UTC
Severovýchodní vítr 10 kt
Teplota 9°C
Vlhkost vzduchu 76%
Tlak 1021 hPa
Viditelnost 10 km a více

METAR: URSS 220030Z 04005MPS 9999 NSC 09/05 Q1021 R02/010070 R06/010070 NOSIG RMK R06/08003MPS QFE764

Čas: 04:52 (00:52 UTC)

Předpověď počasí

Zpráva byla vytvořena před 1 hodinou a 57 minutami, v 22:55 UTC
Předpověď platná od 22 v 00 UTC do 22 v 24 UTC
Severovýchodní vítr 14 kt s nárazy do 23 kt
Viditelnost 10 km a více
Změna
od 22 v 08 UTC do 22 v 09 UTC
vítr z různých směrů 2 kt
Změna
od 22 v 10 UTC do 22 v 12 UTC
Západní vítr 6 kt s nárazy do 16 kt
Změna
od 22 v 15 UTC do 22 v 16 UTC
Severovýchodní vítr 8 kt s nárazy do 17 kt

TAF: URSS 212255Z 2200/2224 04007G12MPS 9999 NSC BECMG 2208/2209 VRB01MPS BECMG 2210/2212 27003G08MPS BECMG 2215/2216 05004G09MPS

Stav a předpovědi počasí z více než 4 000 letišť (zprávy METAR a TAF).

Červené a žluté tečky na mapě představují dostupné meteorologické stanice.

Když kurzor umístíte na tečku, zobrazí se název stanice.

Pak kliknutím zobrazíte stav a předpověď počasí.

Chcete-li změnit mapu, kliknutím na zelené tlačítko se znaménkem +mapu přiblížíte, kliknutím na zelené tlačítko se znaménkem – mapu oddálíte a kliknutím na zelené šipky přejdete na sousední mapy.


METAR-TAF: